Time;durP1;ratioP1;P1;durP2;ratioP2;P2;SDS_P1;SDS_P2;PMS_P1;PMS_P2;Temp;Humidity;BMP_temperature;BMP_pressure;BME280_temperature;BME280_humidity;BME280_pressure;Samples;Min_cycle;Max_cycle;Signal;HPM_P1;HPM_P2
2022/05/22 00:00:23;;;;;;;6.25;3.97;;;;;;;;;;4957016;29;20051;-67
2022/05/22 00:02:51;;;;;;;6.82;3.70;;;;;;;;;;4956846;29;20043;-68
2022/05/22 00:05:20;;;;;;;6.32;3.78;;;;;;;;;;4956696;29;20074;-69
2022/05/22 00:07:48;;;;;;;6.40;3.90;;;;;;;;;;4956665;29;20074;-68
2022/05/22 00:10:15;;;;;;;7.60;4.00;;;;;;;;;;4956737;29;20047;-67
2022/05/22 00:12:43;;;;;;;6.80;3.80;;;;;;;;;;4956572;29;20050;-68
2022/05/22 00:15:12;;;;;;;10.00;4.40;;;;;;;;;;4956372;29;20054;-68
2022/05/22 00:17:40;;;;;;;8.18;3.83;;;;;;;;;;4939673;29;20044;-68
2022/05/22 00:20:09;;;;;;;4.10;3.50;;;;;;;;;;4956484;29;20043;-67
2022/05/22 00:22:37;;;;;;;7.80;4.35;;;;;;;;;;4956308;29;20069;-68
2022/05/22 00:25:05;;;;;;;6.30;3.90;;;;;;;;;;4956483;29;20409;-68
2022/05/22 00:27:33;;;;;;;7.13;4.25;;;;;;;;;;4955883;29;20059;-68
2022/05/22 00:30:01;;;;;;;5.85;3.88;;;;;;;;;;4938885;29;20418;-68
2022/05/22 00:32:29;;;;;;;7.78;3.78;;;;;;;;;;4939216;29;20396;-69
2022/05/22 00:34:56;;;;;;;8.35;3.85;;;;;;;;;;4939286;29;20114;-68
2022/05/22 00:37:24;;;;;;;8.18;4.00;;;;;;;;;;4938900;29;20046;-69
2022/05/22 00:39:54;;;;;;;5.40;4.20;;;;;;;;;;4955894;29;20050;-68
2022/05/22 00:42:23;;;;;;;4.95;3.97;;;;;;;;;;4938845;29;20047;-68
2022/05/22 00:44:53;;;;;;;6.82;4.47;;;;;;;;;;4938308;29;20130;-68
2022/05/22 00:47:22;;;;;;;5.60;3.65;;;;;;;;;;4955738;29;20043;-68
2022/05/22 00:49:51;;;;;;;5.40;3.72;;;;;;;;;;4955634;29;20039;-68
2022/05/22 00:52:25;;;;;;;4.93;3.65;;;;;;;;;;4938837;29;20138;-67
2022/05/22 00:54:54;;;;;;;;;;;;;;;;;;4922851;29;20082;-68
2022/05/22 00:57:31;;;;;;;5.72;3.80;;;;;;;;;;4938473;29;19922;-67
2022/05/22 01:00:00;;;;;;;4.65;3.58;;;;;;;;;;4938449;29;20043;-67
2022/05/22 01:03:26;;;;;;;6.13;3.80;;;;;;;;;;4938459;29;20366;-67
2022/05/22 01:05:15;;;;;;;7.03;3.80;;;;;;;;;;4938409;29;20080;-67
2022/05/22 01:07:43;;;;;;;6.38;3.85;;;;;;;;;;4938216;29;20035;-67
2022/05/22 01:10:11;;;;;;;5.38;3.75;;;;;;;;;;4938297;29;20055;-67
2022/05/22 01:12:40;;;;;;;6.68;3.80;;;;;;;;;;4937965;29;20050;-68
2022/05/22 01:15:08;;;;;;;5.15;4.00;;;;;;;;;;4938027;29;20075;-67
2022/05/22 01:17:44;;;;;;;5.30;3.90;;;;;;;;;;4937817;29;20170;-67
2022/05/22 01:20:11;;;;;;;;;;;;;;;;;;4938428;29;20050;-67
2022/05/22 01:22:39;;;;;;;8.63;3.78;;;;;;;;;;4937864;29;19964;-67
2022/05/22 01:25:08;;;;;;;7.55;3.10;;;;;;;;;;4922416;29;20142;-67
2022/05/22 01:27:36;;;;;;;7.20;2.92;;;;;;;;;;4937893;29;20083;-68
2022/05/22 01:30:27;;;;;;;7.03;3.22;;;;;;;;;;4954649;29;20394;-68
2022/05/22 01:33:03;;;;;;;5.68;3.45;;;;;;;;;;4937905;29;20047;-69
2022/05/22 01:35:30;;;;;;;5.00;3.15;;;;;;;;;;4955012;29;20044;-66
2022/05/22 01:38:04;;;;;;;3.97;3.13;;;;;;;;;;4938037;29;20039;-67
2022/05/22 01:40:33;;;;;;;5.22;3.65;;;;;;;;;;4937690;29;20509;-68
2022/05/22 01:43:01;;;;;;;5.60;3.72;;;;;;;;;;4937607;29;20053;-67
2022/05/22 01:45:31;;;;;;;5.10;2.97;;;;;;;;;;4937934;29;20055;-67
2022/05/22 01:48:00;;;;;;;6.05;3.50;;;;;;;;;;4937431;29;20043;-67
2022/05/22 01:50:34;;;;;;;8.05;3.47;;;;;;;;;;4937555;29;20071;-68
2022/05/22 01:53:03;;;;;;;6.03;3.30;;;;;;;;;;4937623;29;20142;-68
2022/05/22 01:55:30;;;;;;;5.72;3.20;;;;;;;;;;4937318;29;20561;-68
2022/05/22 01:58:00;;;;;;;7.50;3.00;;;;;;;;;;4937496;29;20131;-68
2022/05/22 02:00:30;;;;;;;6.50;2.95;;;;;;;;;;4937668;29;20051;-69
2022/05/22 02:02:58;;;;;;;5.90;3.30;;;;;;;;;;4937356;29;20043;-68
2022/05/22 02:05:36;;;;;;;6.18;3.17;;;;;;;;;;4936810;29;20051;-68
2022/05/22 02:08:19;;;;;;;5.38;2.92;;;;;;;;;;4937258;29;20409;-68
2022/05/22 02:10:52;;;;;;;5.82;3.53;;;;;;;;;;4937259;29;20051;-68
2022/05/22 02:13:23;;;;;;;6.03;3.40;;;;;;;;;;4937559;29;20055;-69
2022/05/22 02:15:51;;;;;;;9.27;3.55;;;;;;;;;;4937180;29;20079;-67
2022/05/22 02:18:19;;;;;;;7.38;3.72;;;;;;;;;;4937506;29;20039;-68
2022/05/22 02:20:50;;;;;;;6.30;3.50;;;;;;;;;;4937472;29;20413;-67
2022/05/22 02:23:18;;;;;;;4.68;3.15;;;;;;;;;;4937374;29;20079;-67
2022/05/22 02:25:49;;;;;;;4.63;3.35;;;;;;;;;;4937270;29;20055;-67
2022/05/22 02:28:18;;;;;;;4.95;3.67;;;;;;;;;;4937235;29;20051;-67
2022/05/22 02:30:51;;;;;;;5.20;3.50;;;;;;;;;;4937320;29;20142;-67
2022/05/22 02:33:19;;;;;;;5.68;3.00;;;;;;;;;;4921623;29;20083;-68
2022/05/22 02:35:53;;;;;;;4.78;3.33;;;;;;;;;;4937169;29;20047;-68
2022/05/22 02:38:28;;;;;;;;;;;;;;;;;;4937808;29;20090;-69
2022/05/22 02:40:55;;;;;;;6.85;3.80;;;;;;;;;;4937041;29;19977;-68
2022/05/22 02:43:23;;;;;;;4.95;3.75;;;;;;;;;;4937017;29;20051;-69
2022/05/22 02:45:59;;;;;;;9.95;4.43;;;;;;;;;;4937092;29;20054;-69
2022/05/22 02:48:29;;;;;;;7.25;3.28;;;;;;;;;;4937312;29;20048;-69
2022/05/22 02:51:04;;;;;;;6.68;3.70;;;;;;;;;;4936983;29;20054;-69
2022/05/22 02:53:33;;;;;;;6.78;3.50;;;;;;;;;;4921413;29;20417;-66
2022/05/22 02:56:20;;;;;;;6.55;4.03;;;;;;;;;;4954054;29;21052;-69
2022/05/22 02:59:06;;;;;;;7.05;3.42;;;;;;;;;;4954393;29;20050;-68
2022/05/22 03:01:45;;;;;;;6.63;3.65;;;;;;;;;;4936827;29;20114;-67
2022/05/22 03:04:13;;;;;;;7.75;3.80;;;;;;;;;;4921142;29;20051;-66
2022/05/22 03:06:41;;;;;;;5.00;3.42;;;;;;;;;;4936692;29;20098;-68
2022/05/22 03:09:14;;;;;;;9.82;4.75;;;;;;;;;;4936810;29;20055;-67
2022/05/22 03:11:45;;;;;;;5.45;4.13;;;;;;;;;;4936635;29;20148;-67
2022/05/22 03:14:15;;;;;;;11.65;6.35;;;;;;;;;;4936825;29;20050;-67
2022/05/22 03:16:43;;;;;;;9.60;5.90;;;;;;;;;;4920620;28;20501;-67
2022/05/22 03:19:23;;;;;;;7.22;4.00;;;;;;;;;;4940229;29;20581;-67
2022/05/22 03:21:51;;;;;;;7.50;3.88;;;;;;;;;;4940069;29;20047;-67
2022/05/22 03:24:19;;;;;;;11.38;4.63;;;;;;;;;;4940497;29;20050;-67
2022/05/22 03:26:49;;;;;;;6.90;3.97;;;;;;;;;;4940014;29;20051;-67
2022/05/22 03:29:18;;;;;;;6.63;3.42;;;;;;;;;;4939928;29;20522;-67
2022/05/22 03:31:48;;;;;;;7.07;4.00;;;;;;;;;;4940246;29;20051;-67
2022/05/22 03:34:16;;;;;;;10.88;3.50;;;;;;;;;;4939865;29;20523;-67
2022/05/22 03:36:48;;;;;;;6.38;3.60;;;;;;;;;;4940167;29;20050;-67
2022/05/22 03:39:17;;;;;;;8.00;4.32;;;;;;;;;;4939928;29;20054;-67
2022/05/22 03:41:45;;;;;;;6.22;3.72;;;;;;;;;;4940085;29;20517;-67
2022/05/22 03:44:15;;;;;;;8.40;3.90;;;;;;;;;;4939763;29;20122;-67
2022/05/22 03:46:46;;;;;;;5.28;3.45;;;;;;;;;;4939825;29;20055;-67
2022/05/22 03:49:15;;;;;;;5.88;4.00;;;;;;;;;;4939798;29;20055;-67
2022/05/22 03:51:45;;;;;;;6.50;3.63;;;;;;;;;;4939747;29;20075;-67
2022/05/22 03:54:16;;;;;;;7.40;4.45;;;;;;;;;;4939613;29;20051;-67
2022/05/22 03:56:48;;;;;;;9.98;4.97;;;;;;;;;;4939259;29;20502;-67
2022/05/22 03:59:21;;;;;;;14.95;8.13;;;;;;;;;;4939649;29;20404;-67
2022/05/22 04:01:50;;;;;;;15.65;9.05;;;;;;;;;;4923890;29;20102;-67
2022/05/22 04:04:18;;;;;;;6.50;4.65;;;;;;;;;;4939410;29;20078;-67
2022/05/22 04:06:47;;;;;;;5.15;3.53;;;;;;;;;;4939454;29;20057;-68
2022/05/22 04:09:21;;;;;;;4.75;3.75;;;;;;;;;;4939497;29;20047;-68
2022/05/22 04:12:11;;;;;;;5.95;4.38;;;;;;;;;;4938993;29;20564;-68
2022/05/22 04:14:40;;;;;;;4.95;3.60;;;;;;;;;;4939242;29;20066;-68
2022/05/22 04:17:10;;;;;;;5.95;3.13;;;;;;;;;;4939200;29;20441;-68
2022/05/22 04:19:38;;;;;;;10.30;6.20;;;;;;;;;;4938999;29;20051;-69
2022/05/22 04:22:09;;;;;;;20.92;14.07;;;;;;;;;;4939135;29;20047;-67
2022/05/22 04:27:42;;;;;;;7.45;4.13;;;;;;;;;;4898340;29;20058;-67
2022/05/22 04:30:17;;;;;;;10.77;7.93;;;;;;;;;;4938224;29;20047;-67
2022/05/22 04:32:53;;;;;;;6.68;3.03;;;;;;;;;;4938960;29;20078;-68
2022/05/22 04:35:22;;;;;;;7.88;4.13;;;;;;;;;;4938535;29;20492;-67
2022/05/22 04:37:51;;;;;;;6.28;3.25;;;;;;;;;;4919755;29;20114;-68
2022/05/22 04:40:19;;;;;;;7.22;5.50;;;;;;;;;;4919846;29;20051;-68
2022/05/22 04:42:46;;;;;;;9.65;5.97;;;;;;;;;;4919711;29;20051;-68
2022/05/22 04:45:14;;;;;;;8.05;5.18;;;;;;;;;;4919572;29;20043;-68
2022/05/22 04:47:54;;;;;;;10.73;6.97;;;;;;;;;;4936798;29;20115;-68
2022/05/22 04:50:46;;;;;;;5.22;3.10;;;;;;;;;;4936892;29;20031;-68
2022/05/22 04:53:34;;;;;;;5.10;3.00;;;;;;;;;;4922156;29;20071;-68
2022/05/22 04:56:11;;;;;;;4.70;3.20;;;;;;;;;;4919491;29;20083;-68
2022/05/22 04:58:47;;;;;;;9.13;4.97;;;;;;;;;;4919456;29;20442;-69
2022/05/22 05:01:17;;;;;;;8.85;3.78;;;;;;;;;;4919652;29;20533;-68
2022/05/22 05:04:06;;;;;;;6.30;4.30;;;;;;;;;;4919342;29;20494;-69
2022/05/22 05:06:54;;;;;;;6.38;3.00;;;;;;;;;;4919363;29;20048;-69
2022/05/22 05:09:40;;;;;;;5.30;3.20;;;;;;;;;;4936406;29;20051;-69
2022/05/22 05:12:18;;;;;;;5.40;2.45;;;;;;;;;;4919239;29;20051;-69
2022/05/22 05:14:46;;;;;;;5.15;2.50;;;;;;;;;;4919159;29;20048;-69
2022/05/22 05:17:15;;;;;;;7.68;2.60;;;;;;;;;;4919017;29;20052;-69
2022/05/22 05:19:44;;;;;;;5.57;2.70;;;;;;;;;;4919074;29;20395;-69
2022/05/22 05:22:12;;;;;;;5.53;2.97;;;;;;;;;;4918680;29;20105;-69
2022/05/22 05:24:41;;;;;;;5.63;3.00;;;;;;;;;;4919301;29;20043;-68
2022/05/22 05:27:12;;;;;;;8.13;2.97;;;;;;;;;;4918931;29;20115;-68
2022/05/22 05:30:10;;;;;;;5.68;3.30;;;;;;;;;;4919004;29;20135;-68
2022/05/22 05:32:43;;;;;;;5.47;3.60;;;;;;;;;;4918894;29;20052;-67
2022/05/22 05:35:31;;;;;;;7.30;2.65;;;;;;;;;;4935698;29;20465;-67
2022/05/22 05:38:00;;;;;;;10.13;3.65;;;;;;;;;;4918916;29;20168;-67
2022/05/22 05:40:30;;;;;;;7.93;3.05;;;;;;;;;;4918879;29;20043;-67
2022/05/22 05:42:58;;;;;;;8.23;3.00;;;;;;;;;;4918828;29;20051;-68
2022/05/22 05:45:27;;;;;;;3.83;2.70;;;;;;;;;;4923419;29;20681;-68
2022/05/22 05:47:59;;;;;;;5.03;2.63;;;;;;;;;;4937702;29;20458;-66
2022/05/22 05:50:50;;;;;;;4.22;3.03;;;;;;;;;;4954488;29;20117;-67
2022/05/22 05:53:34;;;;;;;5.35;3.15;;;;;;;;;;4937516;29;20051;-67
2022/05/22 05:56:18;;;;;;;5.60;2.83;;;;;;;;;;4954984;29;20051;-66
2022/05/22 05:59:08;;;;;;;7.90;3.08;;;;;;;;;;4937419;29;20057;-66
2022/05/22 06:01:46;;;;;;;5.18;3.00;;;;;;;;;;4936885;29;20413;-66
2022/05/22 06:04:14;;;;;;;5.45;2.80;;;;;;;;;;4937086;29;20051;-65
2022/05/22 06:06:45;;;;;;;9.15;3.10;;;;;;;;;;4937244;29;20051;-64
2022/05/22 06:09:13;;;;;;;12.13;5.85;;;;;;;;;;4937070;29;20043;-63
2022/05/22 06:11:40;;;;;;;11.05;4.72;;;;;;;;;;4951937;29;20548;-65
2022/05/22 06:14:41;;;;;;;11.48;5.30;;;;;;;;;;4927648;29;20131;-65
2022/05/22 06:17:09;;;;;;;6.75;3.55;;;;;;;;;;4917988;29;20047;-66
2022/05/22 06:19:57;;;;;;;4.35;3.38;;;;;;;;;;4920145;29;20046;-65
2022/05/22 06:22:57;;;;;;;5.13;2.95;;;;;;;;;;4948015;29;20739;-66
2022/05/22 06:25:48;;;;;;;9.07;3.50;;;;;;;;;;4930747;29;20054;-65
2022/05/22 06:28:33;;;;;;;8.48;3.35;;;;;;;;;;4936847;29;20398;-65
2022/05/22 06:31:05;;;;;;;11.02;4.88;;;;;;;;;;4953544;29;20089;-66
2022/05/22 06:34:04;;;;;;;5.07;2.85;;;;;;;;;;4934947;29;20122;-66
2022/05/22 06:37:02;;;;;;;9.18;4.07;;;;;;;;;;4934017;29;20496;-64
2022/05/22 06:39:51;;;;;;;9.75;3.95;;;;;;;;;;4938746;29;20069;-65
2022/05/22 06:42:43;;;;;;;7.00;3.17;;;;;;;;;;4952778;28;20520;-65
2022/05/22 06:45:34;;;;;;;7.85;2.10;;;;;;;;;;4939516;29;20569;-65
2022/05/22 06:48:20;;;;;;;8.00;2.30;;;;;;;;;;4954055;28;20145;-64
2022/05/22 06:51:06;;;;;;;9.93;4.45;;;;;;;;;;4939251;29;20070;-63
2022/05/22 06:53:54;;;;;;;7.30;3.85;;;;;;;;;;4955876;29;20087;-69
2022/05/22 06:56:50;;;;;;;8.35;3.00;;;;;;;;;;4940437;29;20158;-74
2022/05/22 06:59:32;;;;;;;8.35;4.03;;;;;;;;;;4940216;29;20047;-70
2022/05/22 07:02:36;;;;;;;9.15;5.15;;;;;;;;;;4957182;29;20074;-70
2022/05/22 07:05:12;;;;;;;5.00;2.40;;;;;;;;;;4940047;29;20515;-69
2022/05/22 07:07:55;;;;;;;5.03;2.63;;;;;;;;;;4939640;29;20051;-69
2022/05/22 07:13:38;;;;;;;6.13;3.92;;;;;;;;;;4940127;29;20409;-69
2022/05/22 07:16:44;;;;;;;4.80;2.38;;;;;;;;;;4860825;29;20453;-68
2022/05/22 07:19:22;;;;;;;4.30;2.45;;;;;;;;;;4860237;29;20114;-68
2022/05/22 07:21:58;;;;;;;6.57;3.05;;;;;;;;;;4902136;29;20047;-68
2022/05/22 07:24:46;;;;;;;4.68;2.20;;;;;;;;;;4940402;29;20151;-68
2022/05/22 07:27:21;;;;;;;4.20;2.55;;;;;;;;;;4937913;29;20067;-69
2022/05/22 07:30:08;;;;;;;4.32;2.20;;;;;;;;;;4957456;29;20062;-69
2022/05/22 07:32:51;;;;;;;5.85;2.75;;;;;;;;;;4940268;29;20063;-69
2022/05/22 07:35:55;;;;;;;8.85;3.08;;;;;;;;;;4878740;29;20051;-69
2022/05/22 07:38:44;;;;;;;7.13;3.40;;;;;;;;;;4936760;29;20152;-68
2022/05/22 07:41:37;;;;;;;11.15;4.38;;;;;;;;;;4952133;29;20062;-68
2022/05/22 07:44:20;;;;;;;85.03;63.55;;;;;;;;;;4939594;29;20078;-67
2022/05/22 07:47:20;;;;;;;110.57;81.05;;;;;;;;;;4903804;29;20848;-67
2022/05/22 07:53:15;;;;;;;23.70;19.15;;;;;;;;;;4930762;29;20194;-66
2022/05/22 07:56:06;;;;;;;16.55;11.50;;;;;;;;;;4926845;29;20059;-67
2022/05/22 07:58:52;;;;;;;9.13;4.00;;;;;;;;;;4956975;29;20058;-67
2022/05/22 08:01:40;;;;;;;4.45;2.33;;;;;;;;;;4942969;29;20051;-67
2022/05/22 08:04:13;;;;;;;5.00;2.95;;;;;;;;;;4956919;28;20066;-68
2022/05/22 08:07:11;;;;;;;16.35;14.00;;;;;;;;;;4939715;29;20143;-68
2022/05/22 08:09:47;;;;;;;18.67;13.55;;;;;;;;;;4939322;29;20130;-68
2022/05/22 08:12:15;;;;;;;20.33;15.57;;;;;;;;;;4939370;29;20066;-68
2022/05/22 08:14:44;;;;;;;11.10;4.75;;;;;;;;;;4939154;29;20465;-69
2022/05/22 08:17:12;;;;;;;4.57;2.78;;;;;;;;;;4939054;29;20051;-69
2022/05/22 08:19:40;;;;;;;14.55;5.07;;;;;;;;;;4939699;29;20049;-68
2022/05/22 08:22:20;;;;;;;4.38;2.90;;;;;;;;;;4938634;29;20394;-69
2022/05/22 08:25:07;;;;;;;10.48;3.75;;;;;;;;;;4956663;29;20409;-69
2022/05/22 08:27:39;;;;;;;5.97;2.88;;;;;;;;;;4938934;29;20059;-69
2022/05/22 08:30:07;;;;;;;5.70;3.15;;;;;;;;;;4939084;29;20055;-69
2022/05/22 08:32:39;;;;;;;8.77;3.72;;;;;;;;;;4939018;29;20054;-68
2022/05/22 08:35:07;;;;;;;4.72;2.70;;;;;;;;;;4956402;29;20055;-69
2022/05/22 08:37:35;;;;;;;5.47;3.67;;;;;;;;;;4955951;29;20047;-69
2022/05/22 08:40:04;;;;;;;6.32;3.30;;;;;;;;;;4956619;29;20059;-66
2022/05/22 08:42:36;;;;;;;5.93;3.53;;;;;;;;;;4955720;29;20121;-68
2022/05/22 08:45:09;;;;;;;6.40;3.20;;;;;;;;;;4956309;29;20075;-68
2022/05/22 08:47:42;;;;;;;9.18;5.20;;;;;;;;;;4955930;29;20039;-68
2022/05/22 08:50:12;;;;;;;6.32;4.63;;;;;;;;;;4955866;29;20102;-67
2022/05/22 08:52:46;;;;;;;15.38;9.70;;;;;;;;;;4938749;29;20522;-67
2022/05/22 08:55:17;;;;;;;6.80;3.05;;;;;;;;;;4955679;29;20055;-68
2022/05/22 09:00:50;;;;;;;4.40;2.78;;;;;;;;;;4955762;29;20058;-68
2022/05/22 09:03:26;;;;;;;6.38;2.60;;;;;;;;;;4938437;29;20043;-67
2022/05/22 09:05:54;;;;;;;12.40;5.35;;;;;;;;;;4955310;29;20147;-66
2022/05/22 09:08:29;;;;;;;11.18;9.85;;;;;;;;;;4938431;29;20074;-67
2022/05/22 09:11:08;;;;;;;12.65;7.55;;;;;;;;;;4955322;29;20118;-66
2022/05/22 09:13:54;;;;;;;22.13;15.05;;;;;;;;;;4955235;29;20047;-66
2022/05/22 09:16:28;;;;;;;21.77;9.70;;;;;;;;;;4954765;28;20039;-66
2022/05/22 09:19:10;;;;;;;9.43;4.90;;;;;;;;;;4955339;29;20046;-67
2022/05/22 09:21:37;;;;;;;11.73;3.30;;;;;;;;;;4955001;29;20065;-68
2022/05/22 09:24:06;;;;;;;6.45;3.38;;;;;;;;;;4938160;29;20051;-68
2022/05/22 09:26:42;;;;;;;10.65;6.40;;;;;;;;;;4954563;29;20050;-67
2022/05/22 09:29:29;;;;;;;10.00;3.03;;;;;;;;;;4954757;29;20058;-67
2022/05/22 09:32:04;;;;;;;4.95;2.50;;;;;;;;;;4955196;29;20122;-68
2022/05/22 09:34:39;;;;;;;6.80;3.22;;;;;;;;;;4955060;29;20511;-67
2022/05/22 09:37:07;;;;;;;17.48;3.10;;;;;;;;;;4954837;29;20067;-67
2022/05/22 09:39:46;;;;;;;7.32;2.45;;;;;;;;;;4955034;29;20047;-67
2022/05/22 09:42:20;;;;;;;9.30;2.85;;;;;;;;;;4937996;29;20047;-66
2022/05/22 09:44:51;;;;;;;5.43;2.67;;;;;;;;;;4954843;29;20039;-68
2022/05/22 09:47:37;;;;;;;6.15;2.30;;;;;;;;;;4955055;29;20075;-68
2022/05/22 09:50:20;;;;;;;11.27;2.03;;;;;;;;;;4938059;29;20051;-68
2022/05/22 09:53:07;;;;;;;17.17;10.27;;;;;;;;;;4954724;29;20051;-68
2022/05/22 09:55:50;;;;;;;33.10;20.60;;;;;;;;;;4954801;29;20053;-67
2022/05/22 09:58:24;;;;;;;5.05;2.15;;;;;;;;;;4937526;29;20047;-67
2022/05/22 10:01:03;;;;;;;4.50;1.60;;;;;;;;;;4954676;29;20040;-67
2022/05/22 10:03:48;;;;;;;2.42;1.50;;;;;;;;;;4954731;29;20043;-68
2022/05/22 10:06:34;;;;;;;3.60;1.60;;;;;;;;;;4937698;29;20047;-67
2022/05/22 10:09:02;;;;;;;7.28;2.10;;;;;;;;;;4954576;29;20121;-67
2022/05/22 10:11:39;;;;;;;5.07;1.70;;;;;;;;;;4954564;29;20492;-68
2022/05/22 10:14:07;;;;;;;4.10;2.17;;;;;;;;;;4954616;29;20086;-68
2022/05/22 10:16:46;;;;;;;3.20;1.98;;;;;;;;;;4954433;29;20054;-68
2022/05/22 10:19:42;;;;;;;21.33;2.75;;;;;;;;;;4937260;29;20043;-69
2022/05/22 10:22:20;;;;;;;5.10;1.95;;;;;;;;;;4954515;29;20039;-69
2022/05/22 10:24:47;;;;;;;5.20;2.03;;;;;;;;;;4954233;29;20051;-68
2022/05/22 10:27:33;;;;;;;3.95;2.33;;;;;;;;;;4953209;29;20058;-67
2022/05/22 10:30:01;;;;;;;2.95;2.00;;;;;;;;;;4937302;29;20452;-67
2022/05/22 10:32:39;;;;;;;12.05;2.38;;;;;;;;;;4937930;29;20094;-69
2022/05/22 10:35:22;;;;;;;5.30;1.90;;;;;;;;;;4954425;29;20031;-69
2022/05/22 10:37:53;;;;;;;17.02;2.50;;;;;;;;;;4936849;29;20073;-69
2022/05/22 10:40:22;;;;;;;4.20;1.50;;;;;;;;;;4954448;29;20490;-69
2022/05/22 10:42:52;;;;;;;5.72;1.70;;;;;;;;;;4937154;29;20094;-69
2022/05/22 10:45:34;;;;;;;3.40;1.67;;;;;;;;;;4954624;29;20044;-68
2022/05/22 10:48:07;;;;;;;3.97;1.73;;;;;;;;;;4954261;29;20043;-69
2022/05/22 10:50:35;;;;;;;4.63;1.93;;;;;;;;;;4954442;29;20047;-69
2022/05/22 10:53:03;;;;;;;39.92;30.48;;;;;;;;;;4954020;29;20039;-68
2022/05/22 10:55:37;;;;;;;12.32;8.32;;;;;;;;;;4954181;29;20109;-68
2022/05/22 10:58:08;;;;;;;6.05;2.03;;;;;;;;;;4937342;29;20428;-68
2022/05/22 11:00:35;;;;;;;4.15;1.60;;;;;;;;;;4954062;29;20039;-68
2022/05/22 11:03:13;;;;;;;3.67;1.63;;;;;;;;;;4954190;29;20044;-68
2022/05/22 11:05:49;;;;;;;7.40;1.70;;;;;;;;;;4954180;29;20433;-68
2022/05/22 11:08:30;;;;;;;10.48;3.42;;;;;;;;;;4954107;29;20051;-67
2022/05/22 11:11:10;;;;;;;5.97;2.45;;;;;;;;;;4954154;29;20151;-67
2022/05/22 11:13:38;;;;;;;5.38;1.73;;;;;;;;;;4954098;29;20094;-67
2022/05/22 11:16:12;;;;;;;6.13;1.20;;;;;;;;;;4953993;29;20043;-67
2022/05/22 11:18:40;;;;;;;10.50;3.22;;;;;;;;;;4953722;29;20083;-67
2022/05/22 11:21:12;;;;;;;3.80;1.80;;;;;;;;;;4936815;29;20126;-67
2022/05/22 11:23:45;;;;;;;11.32;2.10;;;;;;;;;;4953840;29;20061;-68
2022/05/22 11:26:23;;;;;;;5.20;1.75;;;;;;;;;;4953834;29;20058;-68
2022/05/22 11:28:54;;;;;;;15.85;2.67;;;;;;;;;;4936569;29;20077;-69
2022/05/22 11:31:28;;;;;;;14.13;2.05;;;;;;;;;;4953779;29;20090;-69
2022/05/22 11:34:05;;;;;;;11.73;2.60;;;;;;;;;;4951771;29;20556;-67
2022/05/22 11:36:40;;;;;;;3.40;1.90;;;;;;;;;;4950681;28;20071;-68
2022/05/22 11:39:26;;;;;;;9.85;3.15;;;;;;;;;;4940123;29;20099;-68
2022/05/22 11:42:03;;;;;;;5.97;1.90;;;;;;;;;;4937912;29;20075;-68
2022/05/22 11:44:42;;;;;;;9.73;2.40;;;;;;;;;;4937784;29;20052;-69
2022/05/22 11:47:09;;;;;;;4.10;1.85;;;;;;;;;;4936941;29;20040;-68
2022/05/22 11:49:48;;;;;;;4.45;1.50;;;;;;;;;;4944463;29;20078;-69
2022/05/22 11:55:14;;;;;;;4.22;1.80;;;;;;;;;;4955944;29;20047;-67
2022/05/22 11:57:53;;;;;;;10.45;2.10;;;;;;;;;;4956316;29;20481;-69
2022/05/22 12:00:35;;;;;;;8.65;1.95;;;;;;;;;;4939670;29;20413;-68
2022/05/22 12:03:12;;;;;;;5.63;1.90;;;;;;;;;;4956724;29;20117;-69
2022/05/22 12:06:05;;;;;;;6.78;1.90;;;;;;;;;;4956829;29;20055;-68
2022/05/22 12:08:38;;;;;;;13.27;2.85;;;;;;;;;;4949475;29;20055;-68
2022/05/22 12:11:19;;;;;;;8.25;1.88;;;;;;;;;;4956882;29;20039;-68
2022/05/22 12:13:53;;;;;;;19.60;2.80;;;;;;;;;;4956821;29;20067;-69
2022/05/22 12:16:24;;;;;;;4.82;1.80;;;;;;;;;;4956864;29;20098;-68
2022/05/22 12:19:01;;;;;;;6.00;1.65;;;;;;;;;;4955643;29;20043;-66
2022/05/22 12:21:33;;;;;;;4.70;1.40;;;;;;;;;;4945514;29;20388;-68
2022/05/22 12:24:05;;;;;;;7.53;2.10;;;;;;;;;;4918471;29;20225;-69
2022/05/22 12:26:34;;;;;;;9.27;1.77;;;;;;;;;;4939025;29;20043;-68
2022/05/22 12:29:02;;;;;;;5.75;1.60;;;;;;;;;;4937246;29;20047;-69
2022/05/22 12:31:32;;;;;;;6.60;1.50;;;;;;;;;;4937349;29;20127;-70
2022/05/22 12:34:05;;;;;;;8.23;1.75;;;;;;;;;;4941155;29;20393;-67
2022/05/22 12:36:33;;;;;;;4.50;1.80;;;;;;;;;;4939608;29;20063;-68
2022/05/22 12:39:04;;;;;;;4.43;1.42;;;;;;;;;;4937278;29;20047;-69
2022/05/22 12:41:37;;;;;;;4.20;1.20;;;;;;;;;;4937711;29;20549;-68
2022/05/22 12:44:05;;;;;;;9.25;5.20;;;;;;;;;;4937071;29;20051;-69
2022/05/22 12:46:33;;;;;;;10.15;4.20;;;;;;;;;;4920092;29;20091;-68
2022/05/22 12:49:10;;;;;;;3.33;2.05;;;;;;;;;;4936773;29;20052;-70
2022/05/22 12:51:43;;;;;;;9.82;4.75;;;;;;;;;;4935991;29;20040;-70
2022/05/22 12:54:22;;;;;;;7.72;4.43;;;;;;;;;;4936688;29;20051;-69
2022/05/22 12:56:50;;;;;;;6.03;3.08;;;;;;;;;;4937555;29;20055;-69
2022/05/22 12:59:22;;;;;;;10.70;3.95;;;;;;;;;;4937178;29;20044;-68
2022/05/22 13:01:51;;;;;;;7.90;3.65;;;;;;;;;;4936498;29;20036;-68
2022/05/22 13:04:39;;;;;;;6.28;3.40;;;;;;;;;;4936757;29;20051;-67
2022/05/22 13:07:09;;;;;;;5.00;2.72;;;;;;;;;;4939583;29;20035;-68
2022/05/22 13:09:45;;;;;;;5.72;2.75;;;;;;;;;;4956235;29;20042;-70
2022/05/22 13:12:13;;;;;;;7.90;2.38;;;;;;;;;;4956104;29;20070;-68
2022/05/22 13:14:56;;;;;;;4.40;2.60;;;;;;;;;;4955294;29;20039;-70
2022/05/22 13:17:40;;;;;;;6.90;2.10;;;;;;;;;;4955865;29;20050;-69
2022/05/22 13:20:10;;;;;;;7.35;1.90;;;;;;;;;;4956315;29;20492;-73
2022/05/22 13:22:39;;;;;;;25.65;16.92;;;;;;;;;;4955623;29;20111;-68
2022/05/22 13:25:25;;;;;;;3.00;2.00;;;;;;;;;;4956936;29;20050;-69
2022/05/22 13:27:52;;;;;;;3.15;1.98;;;;;;;;;;4939711;29;20055;-69
2022/05/22 13:30:22;;;;;;;7.13;2.60;;;;;;;;;;4956850;29;20488;-69
2022/05/22 13:33:04;;;;;;;4.70;2.70;;;;;;;;;;4955737;29;20050;-68
2022/05/22 13:35:39;;;;;;;2.78;2.03;;;;;;;;;;4944672;28;20396;-66
2022/05/22 13:38:11;;;;;;;3.78;1.75;;;;;;;;;;4954887;28;20552;-67
2022/05/22 13:40:58;;;;;;;7.65;1.90;;;;;;;;;;4954687;28;20043;-68
2022/05/22 13:43:26;;;;;;;3.80;1.55;;;;;;;;;;4954995;28;20040;-69
2022/05/22 13:46:13;;;;;;;4.63;1.85;;;;;;;;;;4954568;28;20528;-68
2022/05/22 13:48:41;;;;;;;4.35;1.95;;;;;;;;;;4954625;28;20497;-69
2022/05/22 13:54:28;;;;;;;2.47;1.52;;;;;;;;;;4954838;28;20393;-69
2022/05/22 13:56:58;;;;;;;4.20;1.75;;;;;;;;;;4954491;28;20494;-68
2022/05/22 13:59:27;;;;;;;5.20;1.90;;;;;;;;;;4954894;28;20047;-69
2022/05/22 14:01:55;;;;;;;2.70;1.52;;;;;;;;;;4955849;28;20041;-70
2022/05/22 14:04:23;;;;;;;2.85;1.60;;;;;;;;;;4956057;28;20081;-69
2022/05/22 14:06:51;;;;;;;3.63;1.55;;;;;;;;;;4948407;28;20132;-67
2022/05/22 14:09:30;;;;;;;2.92;1.67;;;;;;;;;;4953096;29;20073;-67
2022/05/22 14:11:58;;;;;;;4.55;1.33;;;;;;;;;;4951915;29;20043;-69
2022/05/22 14:14:27;;;;;;;2.50;1.20;;;;;;;;;;4950588;29;20035;-70
2022/05/22 14:16:57;;;;;;;2.47;1.35;;;;;;;;;;4936675;29;20161;-69
2022/05/22 14:19:27;;;;;;;5.00;1.35;;;;;;;;;;4945863;29;20047;-69
2022/05/22 14:21:57;;;;;;;3.17;1.80;;;;;;;;;;4952234;29;20039;-68
2022/05/22 14:27:30;;;;;;;5.07;1.77;;;;;;;;;;4954314;29;20059;-61
2022/05/22 14:30:16;;;;;;;5.18;3.10;;;;;;;;;;4953700;29;20051;-62
2022/05/22 14:32:46;;;;;;;5.28;4.25;;;;;;;;;;4953545;29;20058;-61
2022/05/22 14:35:15;;;;;;;5.40;2.28;;;;;;;;;;4939619;29;20039;-61
2022/05/22 14:37:43;;;;;;;14.23;7.28;;;;;;;;;;4953825;29;20071;-61
2022/05/22 14:40:16;;;;;;;4.95;2.00;;;;;;;;;;4953835;29;20044;-61
2022/05/22 14:42:45;;;;;;;19.00;15.57;;;;;;;;;;4950492;29;20577;-61
2022/05/22 14:45:18;;;;;;;24.65;13.80;;;;;;;;;;4947514;29;20718;-61
2022/05/22 14:48:08;;;;;;;31.58;22.73;;;;;;;;;;4953202;29;20047;-62
2022/05/22 14:50:36;;;;;;;3.70;2.38;;;;;;;;;;4945065;29;20458;-62
2022/05/22 14:53:07;;;;;;;8.30;5.30;;;;;;;;;;4943280;29;20043;-61
2022/05/22 14:55:37;;;;;;;20.52;15.00;;;;;;;;;;4953843;29;20432;-61
2022/05/22 14:58:17;;;;;;;9.60;6.80;;;;;;;;;;4953597;29;20091;-62
2022/05/22 15:00:49;;;;;;;3.40;2.33;;;;;;;;;;4953631;29;20043;-62
2022/05/22 15:03:21;;;;;;;4.40;2.42;;;;;;;;;;4953612;29;20058;-62
2022/05/22 15:05:53;;;;;;;3.97;2.03;;;;;;;;;;4953661;29;20058;-62
2022/05/22 15:08:47;;;;;;;40.92;28.85;;;;;;;;;;4953958;29;20047;-62
2022/05/22 15:11:17;;;;;;;6.53;3.30;;;;;;;;;;4950085;29;20110;-61
2022/05/22 15:13:56;;;;;;;4.30;2.50;;;;;;;;;;4954868;28;20067;-62
2022/05/22 15:16:25;;;;;;;4.47;1.70;;;;;;;;;;4957184;29;20097;-61
2022/05/22 15:21:59;;;;;;;3.25;1.67;;;;;;;;;;4957274;29;20054;-71
2022/05/22 15:27:14;;;;;;;3.53;1.77;;;;;;;;;;4957234;29;20047;-68
2022/05/22 15:29:45;;;;;;;6.00;1.55;;;;;;;;;;4940297;29;20082;-65
2022/05/22 15:32:15;;;;;;;4.22;1.92;;;;;;;;;;4957091;29;20062;-65
2022/05/22 15:34:43;;;;;;;8.55;5.15;;;;;;;;;;4956986;29;20043;-65
2022/05/22 15:37:21;;;;;;;4.95;1.77;;;;;;;;;;4956859;29;20051;-67
2022/05/22 15:39:48;;;;;;;13.68;10.57;;;;;;;;;;4956749;29;20054;-65
2022/05/22 15:42:17;;;;;;;5.45;3.72;;;;;;;;;;4955869;29;20051;-65
2022/05/22 15:45:05;;;;;;;3.65;2.25;;;;;;;;;;4939235;29;20051;-65
2022/05/22 15:47:35;;;;;;;38.03;31.73;;;;;;;;;;4944649;29;20058;-65
2022/05/22 15:53:07;;;;;;;3.10;1.50;;;;;;;;;;4956329;29;20051;-64
2022/05/22 15:55:39;;;;;;;3.05;2.22;;;;;;;;;;4956326;29;20050;-65